Orangeburg Municipal Airport
KOGB : now visible

Airfield :











YOU CAN JOIN US ON...

 
LOGIN :

Register | Disclaimer

   EN    FR    IT 

 









Legend :    VFR   Marginal VFR   IFR   Intensive IFR   Very Intensive IFR
Visi :
Ceiling :
>= 8 km
>= 3000ft
5 to 8 km
1000 to 3000 ft
1500m to 5 km
500 to 1000 ft
800 to 1500m
200 to 500 ft
< 800m
< 200 ft
Symbols :   Thunderstorms  Fog  Heavy snow  Heavy precipitations  Wind > 20 kt






- Airport Elevation : 195 ft


KOGB - Orangeburg Municipal

CURRENT METAR :
  • 180653Z AUTO 00000KT 10SM BKN026 OVC044 11/09 A3019 RMK AO2 SLP223 T01110089

EXPIRED METARs :
  • 180553Z AUTO 00000KT 10SM FEW050 11/08 A3021 RMK AO2 SLP228 T01110083 10139 20111 58003
  • 180453Z AUTO 00000KT 10SM BKN060 12/08 A3021 RMK AO2 SLP230 T01220083 401610089

TAF KOGB
Valid from the 18 at 06:00 until the 19 at 06:00 UTC


180531Z 1806/1906 VRB03KT P6SM OVC015
TEMPO 1806/1808 SCT025 BKN050
FM181400 VRB03KT 6SM BR VCSH OVC008
FM181900 20004KT 4SM -RA BR OVC007
TEMPO 1819/1823 2SM -RA BR OVC004
FM190100 18003KT 4SM -RA BR OVC003



MET'MAP, your aeronautical weather chart ! - Copyright ORBIFLY December 2007 - Disclaimer

ORBIFLY MET'MAP TEAM :

Programming & Development : Alexandra Zaïnal
Concept & original design : Baudouin d'Aumeries
Assistance for programming : Marc-Olivier Méhu
Technical & hardware support : Manuel Goepfert

Contact : metmap@orbifly.com




SOURCES & CREDITS :

   NOAA       Earth
Advisory